createdAt,value
2022-08-21T00:06:38.261Z,101263.00
2022-08-21T00:17:00.249Z,101253.00
2022-08-21T00:27:23.142Z,101257.00
2022-08-21T00:37:44.666Z,101264.00
2022-08-21T00:48:07.953Z,101264.00
2022-08-21T00:58:31.617Z,101261.00
2022-08-21T01:08:54.650Z,101263.00
2022-08-21T01:19:17.887Z,101271.00
2022-08-21T01:29:46.378Z,101281.00
2022-08-21T01:40:09.753Z,101265.00
2022-08-21T01:50:33.260Z,101272.00
2022-08-21T02:00:55.445Z,101276.00
2022-08-21T02:11:18.221Z,101281.00
2022-08-21T02:21:39.539Z,101279.00
2022-08-21T02:32:02.478Z,101266.00
2022-08-21T02:42:25.150Z,101271.00
2022-08-21T02:52:48.717Z,101269.00
2022-08-21T03:03:14.714Z,101286.00
2022-08-21T03:13:37.776Z,101279.00
2022-08-21T03:23:59.493Z,101270.00
2022-08-21T03:34:27.320Z,101270.00
2022-08-21T03:44:49.119Z,101271.00
2022-08-21T03:55:11.872Z,101274.00
2022-08-21T04:05:33.961Z,101286.00
2022-08-21T04:15:58.977Z,101288.00
2022-08-21T04:26:20.569Z,101292.00
2022-08-21T04:36:43.344Z,101284.00
2022-08-21T04:47:06.751Z,101286.00
2022-08-21T04:57:39.747Z,101296.00
2022-08-21T05:08:14.285Z,101300.00
2022-08-21T05:18:37.155Z,101304.00
2022-08-21T05:28:58.944Z,101312.00
2022-08-21T05:39:22.004Z,101324.00
2022-08-21T05:49:43.599Z,101306.00
2022-08-21T06:00:09.767Z,101311.00
2022-08-21T06:10:34.292Z,101322.00
2022-08-21T06:20:56.964Z,101308.00
2022-08-21T06:31:22.011Z,101321.00
2022-08-21T06:41:44.937Z,101330.00
2022-08-21T06:52:11.866Z,101315.00
2022-08-21T07:02:35.036Z,101323.00
2022-08-21T07:13:00.521Z,101316.00
2022-08-21T07:23:28.564Z,101314.00
2022-08-21T07:33:49.830Z,101310.00
2022-08-21T07:44:12.744Z,101309.00
2022-08-21T07:54:37.145Z,101306.00
2022-08-21T08:05:02.846Z,101308.00
2022-08-21T08:15:27.113Z,101302.00
2022-08-21T08:25:50.553Z,101310.00
2022-08-21T08:36:16.711Z,101314.00
2022-08-21T08:46:43.857Z,101316.00
2022-08-21T08:57:12.741Z,101306.00
2022-08-21T09:07:42.087Z,101302.00
2022-08-21T09:18:26.539Z,101293.00
2022-08-21T09:28:54.526Z,101303.00
2022-08-21T09:39:25.833Z,101301.00
2022-08-21T09:49:48.645Z,101301.00
2022-08-21T10:00:17.320Z,101310.00
2022-08-21T10:10:40.482Z,101306.00
2022-08-21T10:21:12.102Z,101310.00
2022-08-21T10:31:50.604Z,101316.00
2022-08-21T10:42:28.493Z,101302.00
2022-08-21T10:53:19.842Z,101309.00
2022-08-21T11:03:46.336Z,101312.00
2022-08-21T11:14:26.846Z,101308.00
2022-08-21T11:24:54.479Z,101309.00
2022-08-21T11:35:25.500Z,101293.00
2022-08-21T11:45:50.835Z,101289.00
2022-08-21T11:56:20.027Z,101292.00
2022-08-21T12:06:43.346Z,101280.00
2022-08-21T12:17:12.207Z,101289.00
2022-08-21T12:27:48.274Z,101269.00
2022-08-21T12:38:16.765Z,101269.00
2022-08-21T12:48:47.296Z,101273.00
2022-08-21T12:59:14.666Z,101271.00
2022-08-21T13:09:37.031Z,101273.00
2022-08-21T13:20:02.150Z,101275.00
2022-08-21T13:30:24.551Z,101279.00
2022-08-21T13:40:51.626Z,101267.00
2022-08-21T13:51:12.869Z,101274.00
2022-08-21T14:01:40.893Z,101275.00
2022-08-21T14:12:13.586Z,101282.00
2022-08-21T14:22:48.237Z,101276.00
2022-08-21T14:33:12.314Z,101280.00
2022-08-21T14:43:35.330Z,101279.00
2022-08-21T14:53:56.857Z,101279.00
2022-08-21T15:04:19.720Z,101281.00
2022-08-21T15:14:42.175Z,101275.00
2022-08-21T15:25:05.736Z,101275.00
2022-08-21T15:35:27.519Z,101284.00
2022-08-21T15:45:50.739Z,101277.00
2022-08-21T15:56:16.600Z,101285.00
2022-08-21T16:06:55.593Z,101287.00
2022-08-21T16:17:22.456Z,101277.00
2022-08-21T16:27:46.983Z,101284.00
2022-08-21T16:38:09.679Z,101289.00
2022-08-21T16:48:32.443Z,101285.00
2022-08-21T16:58:56.185Z,101274.00
2022-08-21T17:09:19.431Z,101269.00
2022-08-21T17:19:42.038Z,101273.00
2022-08-21T17:30:07.201Z,101270.00
2022-08-21T17:40:29.446Z,101273.00
2022-08-21T17:50:52.444Z,101274.00
2022-08-21T18:01:14.049Z,101284.00
2022-08-21T18:11:37.492Z,101295.00
2022-08-21T18:22:03.892Z,101304.00
2022-08-21T18:32:31.496Z,101314.00
2022-08-21T18:42:55.888Z,101314.00
2022-08-21T18:53:27.617Z,101318.00
2022-08-21T19:03:50.895Z,101323.00
2022-08-21T19:14:17.368Z,101316.00
2022-08-21T19:24:40.973Z,101323.00
2022-08-21T19:35:17.563Z,101329.00
2022-08-21T19:45:43.578Z,101322.00
2022-08-21T19:56:15.791Z,101309.00
2022-08-21T20:06:38.301Z,101311.00
2022-08-21T20:17:05.967Z,101323.00
2022-08-21T20:27:31.649Z,101329.00
2022-08-21T20:38:03.685Z,101312.00
2022-08-21T20:48:28.934Z,101327.00
2022-08-21T20:58:58.775Z,101336.00
2022-08-21T21:09:31.981Z,101324.00
2022-08-21T21:19:59.195Z,101324.00
2022-08-21T21:30:23.651Z,101324.00
2022-08-21T21:40:58.520Z,101331.00
2022-08-21T21:51:35.282Z,101340.00
2022-08-21T22:02:08.008Z,101348.00
2022-08-21T22:12:49.570Z,101359.00
2022-08-21T22:23:17.883Z,101358.00
2022-08-21T22:33:39.657Z,101340.00
2022-08-21T22:44:06.031Z,101343.00
2022-08-21T22:54:35.005Z,101343.00
2022-08-21T23:05:01.550Z,101347.00
2022-08-21T23:15:24.469Z,101347.00
2022-08-21T23:26:01.879Z,101352.00
2022-08-21T23:37:02.777Z,101347.00
2022-08-21T23:47:40.701Z,101346.00
2022-08-21T23:58:15.517Z,101342.00
